Weather observations for the past three days for
Atkinson Municipal Airport
Metric (Imperial)
Date Time (cdt) Wind (kph) Vis. (km) Weather Sky Cond. Temperature (ºC) Relative Humidity Wind Chill (°C) Heat Index (°C) Pressure Precipitation (cm)
Air Dwpt 6 hour altimeter (cm) sea level (mb) 1 hr 3 hr 6 hr
Max. Min.
05 00:55 S 22 16.09 Light Rain SCT019 BKN042 OVC060 20 14 23.3 19.8 69% 75.34 0.0
05 00:35 S 15 16.09 Mostly Cloudy BKN042 BKN050 20 14 69% 75.34 0.0
05 00:15 S 7 16.09 A Few Clouds FEW049 FEW055 20 14 69% 75.34 0.0
04 23:55 S 17 G 33 16.09 Fair CLR 20 14 69% 75.29 0.0
04 23:35 S 20 G 28 16.09 Fair CLR 20 14 69% 75.31 0.0
04 23:15 S 19 G 31 16.09 Fair CLR 20 14 69% 75.31 0.0
04 22:55 S 22 16.09 Fair CLR 20 14 69% 75.31 0.0
04 22:35 S 15 16.09 Fair CLR 20 14 69% 75.36 0.0
04 22:15 S 11 16.09 A Few Clouds FEW049 21 14 64% 75.36 0.0
04 21:55 S 17 16.09 Fair CLR 21 14 64% 75.36 0.0
04 21:35 S 15 16.09 A Few Clouds FEW050 21 14 64% 75.36 0.0
04 21:15 S 13 16.09 A Few Clouds FEW050 21 14 64% 75.34 0.0
04 20:55 S 11 16.09 Fair CLR 21 14 64% 75.34 0.0
04 20:35 S 15 G 30 16.09 Fair CLR 22 14 61% 75.31 0.0
04 20:15 S 20 16.09 A Few Clouds FEW050 22 14 61% 75.31 0.0
04 19:55 S 22 G 31 16.09 Fair CLR 22 14 61% 75.29 0.0
04 19:35 SW 13 16.09 Fair CLR 23 14 57% 75.29 0.0
04 19:15 SW 20 G 30 16.09 Fair CLR 23 14 57% 75.29 0.0
04 18:55 SW 20 G 33 16.09 Fair CLR 23 15 26.9 23.3 61% 75.29 0.0
04 18:35 SW 19 16.09 Fair CLR 24 15 57% 25 75.29 0.0
04 18:15 S 28 G 41 16.09 Fair CLR 24 15 57% 25 75.29 0.0
04 17:55 S 20 G 37 16.09 Fair CLR 24 15 57% 25 75.29 0.0
04 17:35 S 20 G 28 16.09 Fair CLR 24 16 61% 25 75.29 0.0
04 17:15 S 22 G 39 16.09 Fair CLR 25 16 57% 26 75.26 0.0
04 16:55 SW 20 G 31 16.09 Fair CLR 25 16 57% 26 75.26 0.0
04 16:35 SW 26 G 39 16.09 Fair CLR 25 15 54% 26 75.29 0.0
04 16:15 SW 26 G 44 16.09 Fair CLR 26 16 54% 27 75.29 0.0
04 15:55 SW 24 G 39 16.09 Fair CLR 27 16 51% 27 75.31 0.0
04 15:35 SW 28 G 41 16.09 Fair CLR 26 16 54% 27 75.31 0.0
04 15:15 SW 28 G 41 16.09 Fair CLR 26 15 51% 27 75.34 0.0
04 14:55 SW 31 G 46 16.09 Fair CLR 26 15 51% 27 75.34 0.0
04 14:35 S 35 G 44 16.09 Fair and Breezy CLR 26 15 51% 27 75.34 0.0
04 14:15 SW 26 G 43 16.09 Fair CLR 26 15 51% 27 75.36 0.0
04 13:55 SW 28 G 39 16.09 Fair CLR 26 15 51% 27 75.39 0.0
04 13:35 SW 26 G 43 16.09 Fair CLR 25 14 51% 26 75.39 0.0
04 13:15 S 24 G 39 16.09 Fair CLR 25 15 54% 26 75.41 0.0
04 12:55 SW 26 G 37 16.09 Fair CLR 25 14 24.7 16.3 51% 26 75.44 0.0
04 12:35 SW 17 G 33 16.09 Fair CLR 24 15 57% 25 75.44 0.0
04 12:15 SW 28 G 39 16.09 Fair CLR 24 14 54% 25 75.44 0.0
04 11:55 S 31 G 44 16.09 Fair CLR 23 13 53% 75.41 0.0
04 11:35 S 31 G 44 16.09 Fair CLR 23 14 57% 75.44 0.0
04 11:15 S 35 G 41 16.09 Fair and Breezy CLR 23 13 53% 75.44 0.0
04 10:55 SW 30 G 46 16.09 Fair CLR 22 12 53% 75.44 0.0
04 10:35 SW 28 G 50 16.09 Fair CLR 22 12 53% 75.46 0.0
04 10:15 SW 30 G 46 16.09 Fair CLR 21 12 57% 75.46 0.0
04 09:55 SW 33 G 50 16.09 Fair and Breezy CLR 21 12 57% 75.46 0.0
04 09:35 SW 22 G 41 16.09 Fair CLR 21 11 53% 75.49 0.0
04 09:15 SW 28 G 39 16.09 Fair CLR 20 11 56% 75.49 0.0
04 08:55 S 30 G 44 16.09 Fair CLR 20 10 53% 75.49 0.0
04 08:35 SW 33 G 44 16.09 Fair and Breezy CLR 19 10 56% 75.49 0.0
04 08:15 S 24 G 43 16.09 Fair CLR 18 10 60% 75.51 0.0
04 07:55 S 26 G 37 16.09 Fair CLR 18 10 60% 75.51 0.0
04 07:35 S 24 G 39 16.09 Fair CLR 17 9 60% 75.51 0.0
04 07:15 S 20 G 35 16.09 Fair CLR 16 9 63% 75.54 0.0
04 06:55 S 24 G 33 16.09 Fair CLR 17 9 19.8 15.9 60% 75.54 0.0
04 06:35 S 24 G 39 16.09 Fair CLR 16 9 63% 75.54 0.0
04 06:15 S 22 16.09 Fair CLR 16 9 63% 75.54 0.0
04 05:55 S 22 G 37 16.09 Fair CLR 16 9 63% 75.57 0.0
04 05:35 S 24 G 35 16.09 Fair CLR 16 8 59% 75.57 0.0
04 05:15 S 22 G 35 16.09 Fair CLR 17 8 56% 75.59 0.0
04 04:55 SW 19 G 30 16.09 Fair CLR 17 8 56% 75.62 0.0
04 04:15 SW 24 G 33 16.09 Fair CLR 18 8 52% 75.59 0.0
04 03:55 SW 24 G 37 16.09 Fair CLR 18 8 52% 75.59 0.0
04 03:35 SW 24 G 39 16.09 Fair CLR 18 8 52% 75.59 0.0
04 03:15 SW 24 G 33 16.09 Fair CLR 18 8 52% 75.62 0.0
04 02:55 SW 20 G 33 16.09 Fair CLR 19 8 49% 75.64 0.0
04 02:35 SW 24 G 33 16.09 Fair CLR 19 8 49% 75.64 0.0
04 02:15 SW 22 G 33 16.09 Fair CLR 19 8 49% 75.67 0.0
04 01:55 SW 26 G 37 16.09 Fair CLR 19 8 49% 75.69 0.0
04 01:35 SW 26 G 41 16.09 Fair CLR 20 8 46% 75.69 0.0
04 01:15 SW 22 G 30 16.09 Fair CLR 19 8 49% 75.72 0.0
04 00:55 SW 19 G 31 16.09 Fair CLR 19 8 24.2 18.6 49% 75.72 0.0
04 00:35 SW 19 G 37 16.09 Fair CLR 20 8 46% 75.72 0.0
04 00:15 SW 20 G 31 16.09 Fair CLR 20 8 46% 75.72 0.0
03 23:55 SW 22 G 30 16.09 Fair CLR 20 8 46% 75.72 0.0
03 23:35 SW 20 G 39 16.09 Fair CLR 20 9 49% 75.74 0.0
03 23:15 SW 20 G 31 16.09 Fair CLR 20 9 49% 75.72 0.0
03 22:55 SW 19 G 31 16.09 Fair CLR 20 9 49% 75.74 0.0
03 22:35 SW 19 G 26 16.09 Fair CLR 20 10 53% 75.74 0.0
03 22:15 S 15 16.09 Fair CLR 19 11 60% 75.74 0.0
03 21:55 S 17 16.09 Fair CLR 20 11 56% 75.74 0.0
03 21:35 S 15 16.09 Fair CLR 19 12 64% 75.74 0.0
03 21:15 S 13 16.09 Fair CLR 19 13 68% 75.72 0.0
03 20:55 S 13 16.09 Fair CLR 20 13 64% 75.72 0.0
03 20:35 S 15 16.09 Fair CLR 20 13 64% 75.72 0.0
03 20:15 S 15 16.09 Fair CLR 21 13 60% 75.72 0.0
03 19:55 S 13 16.09 Fair CLR 21 13 60% 75.74 0.0
03 19:35 S 15 16.09 Fair CLR 23 13 53% 75.74 0.0
03 19:15 S 13 16.09 Fair CLR 24 13 50% 25 75.74 0.0
03 18:55 S 15 16.09 Fair CLR 24 13 26.2 22.9 50% 25 75.77 0.0
03 18:35 SW 13 16.09 Fair CLR 25 14 51% 26 75.79 0.0
03 18:15 S 17 16.09 Fair CLR 25 13 47% 26 75.79 0.0
03 17:55 SW 15 G 30 16.09 Fair CLR 25 12 44% 26 75.79 0.0
03 17:35 SW 13 G 31 16.09 Fair CLR 25 11 42% 26 75.82 0.0
03 17:15 SW 20 G 31 16.09 Fair CLR 26 11 39% 26 75.82 0.0
03 16:55 SW 26 G 33 16.09 Fair CLR 26 12 42% 26 75.84 0.0
03 16:35 SW 19 G 30 16.09 Fair CLR 26 13 45% 26 75.84 0.0
03 16:15 SW 17 16.09 Fair CLR 26 14 48% 26 75.9 0.0
03 15:55 SW 22 G 30 16.09 Fair CLR 26 13 45% 26 75.92 0.0
03 15:35 SW 22 G 33 16.09 Fair CLR 26 13 45% 26 75.95 0.0
03 15:15 SW 17 16.09 Fair CLR 25 13 47% 26 75.97 0.0
03 14:55 SW 22 G 33 16.09 Fair CLR 25 12 44% 26 76 0.0
03 14:35 SW 24 G 31 16.09 Fair CLR 25 12 44% 26 76 0.0
03 14:15 SW 19 G 30 16.09 Fair CLR 25 12 44% 26 76.02 0.0
03 13:35 SW 19 16.09 Fair CLR 24 13 50% 25 76.07 0.0
03 13:15 S 20 G 31 16.09 Fair CLR 23 12 50% 76.1 0.0
03 12:55 SW 22 G 30 16.09 Fair CLR 23 12 23.2 5.9 50% 76.12 0.0
03 12:35 SW 13 G 28 16.09 Fair CLR 23 12 50% 76.15 0.0
03 12:15 SW 24 G 30 16.09 Fair CLR 22 11 50% 76.15 0.0
03 11:55 SW 20 16.09 Fair CLR 22 11 50% 76.17 0.0
03 11:35 SW 20 16.09 Fair CLR 21 10 50% 76.2 0.0
03 11:15 SW 24 G 31 16.09 Fair CLR 21 11 53% 76.2 0.0
03 10:55 SW 22 G 35 16.09 Fair CLR 20 10 53% 76.23 0.0
03 10:35 S 26 G 35 16.09 Fair CLR 19 9 52% 76.23 0.0
03 10:15 SW 24 G 39 16.09 Fair CLR 18 9 56% 76.23 0.0
03 09:55 S 24 G 33 16.09 Fair CLR 18 8 52% 76.23 0.0
03 09:35 S 22 16.09 Fair CLR 17 8 56% 76.25 0.0
03 09:15 S 19 G 31 16.09 Fair CLR 15 7 59% 76.28 0.0
03 08:55 SW 22 G 31 16.09 Fair CLR 14 6 59% 76.28 0.0
03 08:35 S 13 16.09 Fair CLR 13 7 67% 76.3 0.0
03 08:15 S 15 16.09 Fair CLR 11 6 72% 76.3 0.0
03 07:35 S 7 16.09 Fair CLR 9 6 82% 8 76.33 0.0
03 07:15 S 7 16.09 Fair CLR 7 5 87% 6 76.3 0.0
03 06:55 S 9 16.09 Fair CLR 6 4 6.6 4.4 87% 4 76.3 0.0
03 06:35 S 11 16.09 Fair CLR 5 3 87% 3 76.3 0.0
03 06:15 S 9 16.09 Fair CLR 5 3 87% 3 76.3 0.0
03 05:55 S 7 16.09 Fair CLR 5 3 87% 4 76.3 0.0
03 05:35 S 9 16.09 Fair CLR 5 3 87% 3 76.33 0.0
03 05:15 S 7 16.09 Fair CLR 5 3 87% 4 76.33 0.0
03 04:55 S 9 16.09 Fair CLR 5 4 93% 3 76.33 0.0
03 04:35 S 9 16.09 Fair CLR 5 4 93% 3 76.35 0.0
03 04:15 S 7 16.09 Fair CLR 5 4 93% 4 76.35 0.0
03 03:55 S 7 16.09 Fair CLR 5 4 93% 4 76.35 0.0
03 03:35 S 4 16.09 Fair CLR 6 5 93% 76.38 0.0
03 03:15 S 4 16.09 Fair CLR 6 5 93% 76.38 0.0
03 02:55 S 4 16.09 Fair CLR 6 5 93% 76.38 0.0
03 02:35 S 2 16.09 Fair CLR 6 6 100% 76.4 0.0
03 02:15 S 2 16.09 Fair CLR 6 6 100% 76.4 0.0
03 01:55 SE 2 16.09 Fair CLR 6 6 100% 76.43 0.0
03 01:35 SE 2 16.09 Fair CLR 6 6 100% 76.43 0.0
03 01:15 S 4 16.09 Fair CLR 6 6 100% 76.43 0.0
03 00:55 S 4 16.09 Fair CLR 6 6 17.5 5.7 100% 76.45 0.0
03 00:35 SE 2 16.09 Fair CLR 6 6 100% 76.45 0.0
03 00:15 S 2 16.09 Fair CLR 7 6 93% 76.45 0.0
02 23:55 S 2 16.09 Fair CLR 6 6 100% 76.48 0.0
02 23:35 S 2 16.09 Fair CLR 6 6 100% 76.48 0.0
02 23:15 N 2 16.09 Fair CLR 7 6 93% 76.48 0.0
02 22:55 NE 2 16.09 Fair CLR 7 6 93% 76.48 0.0
02 22:35 Calm 16.09 Fair CLR 7 6 93% 76.48 0.0
02 22:15 Calm 16.09 Fair CLR 8 6 87% 76.5 0.0
02 21:55 Calm 16.09 Fair CLR 9 6 82% 76.48 0.0
02 21:35 NE 2 16.09 Fair CLR 9 4 71% 76.48 0.0
02 21:15 Calm 16.09 Fair CLR 10 4 67% 76.48 0.0
02 20:55 Calm 16.09 Fair CLR 11 4 62% 76.45 0.0
02 20:35 NW 2 16.09 Fair CLR 11 4 62% 76.45 0.0
02 20:15 NW 2 16.09 Fair CLR 13 3 51% 76.45 0.0
02 19:55 Vrbl 4 16.09 Fair CLR 14 3 48% 76.43 0.0
02 19:35 Vrbl 4 16.09 Fair CLR 16 3 42% 76.43 0.0
02 19:15 NW 4 16.09 Fair CLR 17 1 34% 76.43 0.0
02 18:35 W 4 16.09 Fair CLR 18 1 32% 76.45 0.0
02 18:15 Vrbl 7 16.09 Fair CLR 18 0 30% 76.45 0.0
02 17:55 Vrbl 7 16.09 Fair CLR 18 0 30% 76.45 0.0
02 17:35 W 11 16.09 Fair CLR 18 0 30% 76.45 0.0
02 17:15 Vrbl 7 16.09 Fair CLR 18 0 30% 76.45 0.0
02 16:55 Vrbl 7 16.09 Fair CLR 18 0 30% 76.48 0.0
02 16:35 Vrbl 6 16.09 Fair CLR 18 0 30% 76.48 0.0
02 16:15 Vrbl 7 4.83 Fair with Haze CLR 18 0 30% 76.48 0.0
02 15:35 Vrbl 7 16.09 Fair CLR 18 0 30% 76.53 0.0
02 15:15 Vrbl 6 16.09 Fair CLR 17 0 32% 76.53 0.0
02 14:55 Vrbl 9 16.09 Fair CLR 18 2 34% 76.56 0.0
02 14:35 Vrbl 11 16.09 Fair CLR 17 0 32% 76.56 0.0
02 14:15 N 13 16.09 Fair CLR 17 1 34% 76.56 0.0
02 13:55 NW 11 16.09 Fair CLR 17 1 34% 76.58 0.0
02 13:35 Vrbl 11 16.09 Fair CLR 16 0 34% 76.58 0.0
02 13:15 Vrbl 7 G 28 16.09 Fair CLR 16 0 34% 76.58 0.0
02 12:55 NW 11 16.09 Fair CLR 16 0 16.3 6 34% 76.61 0.0
02 12:35 NW 11 16.09 Fair CLR 16 0 34% 76.63 0.0
02 12:15 Vrbl 7 16.09 Fair CLR 15 0 36% 76.63 0.0
02 11:55 N 11 G 28 16.09 Fair CLR 15 0 36% 76.66 0.0
02 11:35 N 11 16.09 Fair CLR 15 0 36% 76.66 0.0
02 11:15 N 15 G 26 16.09 Fair CLR 14 0 39% 76.66 0.0
02 10:55 Vrbl 9 16.09 Fair CLR 15 0 36% 76.66 0.0
02 10:35 Vrbl 7 16.09 Fair CLR 15 0 36% 76.66 0.0
02 10:15 N 11 16.09 Fair CLR 14 0 39% 76.63 0.0
02 09:55 N 11 16.09 Fair CLR 13 1 44% 76.66 0.0
02 09:35 Vrbl 9 16.09 Fair CLR 13 3 51% 76.63 0.0
02 09:15 Vrbl 7 16.09 Fair CLR 12 4 58% 76.63 0.0
02 08:55 Vrbl 7 16.09 A Few Clouds FEW080 11 4 62% 76.63 0.0
02 08:35 Vrbl 6 16.09 Fair CLR 10 5 71% 76.61 0.0
02 07:55 NW 6 16.09 Fair CLR 8 5 82% 76.58 0.0
02 07:35 Vrbl 4 16.09 Fair CLR 7 5 87% 76.58 0.0
02 07:15 Vrbl 4 16.09 A Few Clouds FEW080 7 4 81% 76.56 0.0
02 06:55 Vrbl 4 16.09 Partly Cloudy FEW065 SCT090 6 4 9.9 6.1 87% 76.53 0.0
02 06:35 Vrbl 6 16.09 Mostly Cloudy FEW065 BKN100 6 4 87% 76.5 0.0
02 06:15 N 4 16.09 Overcast OVC100 7 3 76% 76.5 0.0
02 05:55 Vrbl 9 16.09 Partly Cloudy SCT100 7 4 81% 5 76.48 0.0
02 05:35 N 6 16.09 Partly Cloudy SCT090 7 4 81% 76.48 0.0
02 05:15 N 6 16.09 Mostly Cloudy BKN090 7 4 81% 76.48 0.0
02 04:55 N 6 16.09 Mostly Cloudy SCT090 BKN110 7 4 81% 76.45 0.0
02 04:35 Vrbl 4 16.09 Partly Cloudy FEW090 SCT120 7 4 81% 76.45 0.0
02 04:15 NW 6 16.09 Partly Cloudy SCT120 7 5 87% 76.45 0.0
02 03:55 Vrbl 6 16.09 Fair CLR 8 4 76% 76.43 0.0
02 03:35 Vrbl 6 16.09 Fair CLR 7 5 87% 76.43 0.0
02 03:15 N 4 16.09 Fair CLR 7 6 93% 76.4 0.0
02 02:55 N 4 16.09 Fair CLR 8 6 87% 76.4 0.0
02 02:35 Vrbl 4 16.09 Fair CLR 8 6 87% 76.43 0.0
02 02:15 Vrbl 6 16.09 A Few Clouds FEW075 9 6 82% 76.43 0.0
02 01:55 Vrbl 4 16.09 Partly Cloudy SCT075 10 7 82% 76.4 0.0
02 01:35 Vrbl 4 16.09 Mostly Cloudy BKN075 9 8 94% 76.43 0.0
02 01:15 Vrbl 4 16.09 Mostly Cloudy BKN085 9 9 100% 76.43 0.0
Date Time (cdt) Wind (kph) Vis. (km) Weather Sky Cond. Air Dwpt Max. Min. Relative Humidity Wind Chill (°C) Heat Index (°C) altimeter (cm) sea level (mb) 1 hr 3 hr 6 hr
6 hour
Temperature (ºC) Pressure Precipitation (cm)